Endeavour — C6BE4 — position and weather

sailwx.info

Track history (hours):
 
Tides and Currents Weather Stations Pressure Air Temp Water Temp Dewpoint Dewpoint Depression Visibility Wind Speed Wind Dir Waves Ship Positions

Endeavour

Operator: Lindblad Expeditions

Last reported at 2020-Jan-26 11:41 UTC. Time now 2020-Jan-28 19:30 UTC.
Position S 29°52' E 031°01'.

Length 190 m; draft 6.5 m.

Type: Cargo ship. MMSI: 311000239.

Date/timePositionNaut miles runAvg speedWind from/ knotsBaromVisibWave heightAir tempDewpointWater temp
2020-Jan-26 11:41S 29°52' E 031°01'0 0.0
2020-Jan-26 11:29S 29°52' E 031°01'0 0.0
2020-Jan-26 10:53S 29°52' E 031°01'0 0.0
2020-Jan-26 09:59S 29°52' E 031°01'0 0.0
2020-Jan-26 09:29S 29°52' E 031°01'0 0.0
2020-Jan-26 05:13S 29°52' E 031°01'0 0.0
2020-Jan-26 01:24S 29°52' E 031°01'0 0.0
2020-Jan-26 00:47S 29°52' E 031°01'0 0.0
2020-Jan-25 18:22S 29°52' E 031°01'0 0.0
2020-Jan-25 18:01S 29°52' E 031°01'0 0.0
2020-Jan-25 17:29S 29°52' E 031°01'0 0.0
2020-Jan-25 14:53S 29°52' E 031°01'0 0.0
2020-Jan-25 11:34S 29°52' E 031°01'0 0.0
2020-Jan-25 03:23S 29°52' E 031°01'0 0.0
2020-Jan-24 22:46S 29°52' E 031°01'0 0.0
2020-Jan-24 10:03S 29°52' E 031°01'0 0.0
2020-Jan-24 09:47S 29°52' E 031°01'0 0.0
2020-Jan-24 02:12S 29°52' E 031°01'0 0.0
2020-Jan-24 00:18S 29°52' E 031°01'0 0.0
2020-Jan-23 23:27S 29°52' E 031°01'0 0.0
2020-Jan-23 21:58S 29°52' E 031°01'0 0.0
2020-Jan-23 14:00S 29°52' E 031°01'0 0.0
2020-Jan-23 12:30S 29°52' E 031°01'0 0.0
2020-Jan-23 10:59S 29°52' E 031°01'0 0.0
2020-Jan-23 09:56S 29°52' E 031°01'0 0.0
2020-Jan-23 05:55S 29°52' E 031°01'0 0.0
2020-Jan-22 18:54S 29°52' E 031°01'0 0.0
2020-Jan-22 15:00S 29°52' E 031°01'0 0.0
2020-Jan-22 08:58S 29°52' E 031°01'0 0.0
2020-Jan-22 08:10S 29°52' E 031°01'0 0.0
2020-Jan-22 03:46S 29°52' E 031°01'0 0.0
2020-Jan-22 03:28S 29°52' E 031°01'0 0.0
2020-Jan-21 23:55S 29°52' E 031°01'0 0.0
2020-Jan-20 20:52S 29°52' E 031°01'0 0.0
2020-Jan-20 18:25S 29°52' E 031°01'4 2.8
2020-Jan-20 17:00S 29°51' E 031°05'3 1.7
2020-Jan-20 15:01S 29°47' E 031°06'1 0.7
2020-Jan-20 13:30S 29°48' E 031°06'4 3.0
2020-Jan-20 12:01S 29°45' E 031°10'0 0.0
2020-Jan-20 10:58S 29°45' E 031°10'0 0.0
2020-Jan-20 09:31S 29°45' E 031°10'0 0.0
2020-Jan-20 09:01S 29°45' E 031°10'0 0.0
2020-Jan-20 06:58S 29°45' E 031°10'0 0.0
2020-Jan-20 06:01S 29°45' E 031°10'0 0.0
2020-Jan-20 05:28S 29°45' E 031°10'0 0.0
2020-Jan-20 05:01S 29°45' E 031°10'0 0.1
2020-Jan-20 03:28S 29°45' E 031°10'0 0.0
2020-Jan-20 02:30S 29°45' E 031°10'0 0.1
2020-Jan-20 01:31S 29°45' E 031°10'0 0.1
2020-Jan-20 00:58S 29°45' E 031°10'0 0.0
2020-Jan-19 23:28S 29°45' E 031°10'0 0.0
2020-Jan-19 21:01S 29°45' E 031°10'0 0.0
2020-Jan-19 19:00S 29°45' E 031°10'0 0.1
2020-Jan-19 18:30S 29°45' E 031°10'0 0.0
2020-Jan-19 16:31S 29°45' E 031°10'0 0.0
2020-Jan-19 12:58S 29°45' E 031°10'0 0.0
2020-Jan-19 11:00S 29°45' E 031°10'0 0.0
2020-Jan-19 10:31S 29°45' E 031°10'0 0.1
2020-Jan-19 10:01S 29°45' E 031°10'0 0.0
2020-Jan-19 08:30S 29°45' E 031°10'0 0.0
2020-Jan-19 06:31S 29°45' E 031°10'0 0.0
2020-Jan-19 04:27S 29°45' E 031°10'0 0.0
2020-Jan-19 03:28S 29°45' E 031°10'  
Track history (hours):
 
Tides and Currents Weather Stations Pressure Air Temp Water Temp Dewpoint Dewpoint Depression Visibility Wind Speed Wind Dir Waves Ship Positions

Endeavour

Operator: Lindblad Expeditions

Last reported at 2020-Jan-26 11:41 UTC. Time now 2020-Jan-28 19:30 UTC.
Position S 29°52' E 031°01'.

Length 190 m; draft 6.5 m.

Type: Cargo ship. MMSI: 311000239.

Date/timePositionNaut miles runAvg speedWind from/ knotsBaromVisibWave heightAir tempDewpointWater temp
2020-Jan-26 11:41S 29°52' E 031°01'0 0.0
2020-Jan-26 11:29S 29°52' E 031°01'0 0.0
2020-Jan-26 10:53S 29°52' E 031°01'0 0.0
2020-Jan-26 09:59S 29°52' E 031°01'0 0.0
2020-Jan-26 09:29S 29°52' E 031°01'0 0.0
2020-Jan-26 05:13S 29°52' E 031°01'0 0.0
2020-Jan-26 01:24S 29°52' E 031°01'0 0.0
2020-Jan-26 00:47S 29°52' E 031°01'0 0.0
2020-Jan-25 18:22S 29°52' E 031°01'0 0.0
2020-Jan-25 18:01S 29°52' E 031°01'0 0.0
2020-Jan-25 17:29S 29°52' E 031°01'0 0.0
2020-Jan-25 14:53S 29°52' E 031°01'0 0.0
2020-Jan-25 11:34S 29°52' E 031°01'0 0.0
2020-Jan-25 03:23S 29°52' E 031°01'0 0.0
2020-Jan-24 22:46S 29°52' E 031°01'0 0.0
2020-Jan-24 10:03S 29°52' E 031°01'0 0.0
2020-Jan-24 09:47S 29°52' E 031°01'0 0.0
2020-Jan-24 02:12S 29°52' E 031°01'0 0.0
2020-Jan-24 00:18S 29°52' E 031°01'0 0.0
2020-Jan-23 23:27S 29°52' E 031°01'0 0.0
2020-Jan-23 21:58S 29°52' E 031°01'0 0.0
2020-Jan-23 14:00S 29°52' E 031°01'0 0.0
2020-Jan-23 12:30S 29°52' E 031°01'0 0.0
2020-Jan-23 10:59S 29°52' E 031°01'0 0.0
2020-Jan-23 09:56S 29°52' E 031°01'0 0.0
2020-Jan-23 05:55S 29°52' E 031°01'0 0.0
2020-Jan-22 18:54S 29°52' E 031°01'0 0.0
2020-Jan-22 15:00S 29°52' E 031°01'0 0.0
2020-Jan-22 08:58S 29°52' E 031°01'0 0.0
2020-Jan-22 08:10S 29°52' E 031°01'0 0.0
2020-Jan-22 03:46S 29°52' E 031°01'0 0.0
2020-Jan-22 03:28S 29°52' E 031°01'0 0.0
2020-Jan-21 23:55S 29°52' E 031°01'0 0.0
2020-Jan-20 20:52S 29°52' E 031°01'0 0.0
2020-Jan-20 18:25S 29°52' E 031°01'4 2.8
2020-Jan-20 17:00S 29°51' E 031°05'3 1.7
2020-Jan-20 15:01S 29°47' E 031°06'1 0.7
2020-Jan-20 13:30S 29°48' E 031°06'4 3.0
2020-Jan-20 12:01S 29°45' E 031°10'0 0.0
2020-Jan-20 10:58S 29°45' E 031°10'0 0.0
2020-Jan-20 09:31S 29°45' E 031°10'0 0.0
2020-Jan-20 09:01S 29°45' E 031°10'0 0.0
2020-Jan-20 06:58S 29°45' E 031°10'0 0.0
2020-Jan-20 06:01S 29°45' E 031°10'0 0.0
2020-Jan-20 05:28S 29°45' E 031°10'0 0.0
2020-Jan-20 05:01S 29°45' E 031°10'0 0.1
2020-Jan-20 03:28S 29°45' E 031°10'0 0.0
2020-Jan-20 02:30S 29°45' E 031°10'0 0.1
2020-Jan-20 01:31S 29°45' E 031°10'0 0.1
2020-Jan-20 00:58S 29°45' E 031°10'0 0.0
2020-Jan-19 23:28S 29°45' E 031°10'0 0.0
2020-Jan-19 21:01S 29°45' E 031°10'0 0.0
2020-Jan-19 19:00S 29°45' E 031°10'0 0.1
2020-Jan-19 18:30S 29°45' E 031°10'0 0.0
2020-Jan-19 16:31S 29°45' E 031°10'0 0.0
2020-Jan-19 12:58S 29°45' E 031°10'0 0.0
2020-Jan-19 11:00S 29°45' E 031°10'0 0.0
2020-Jan-19 10:31S 29°45' E 031°10'0 0.1
2020-Jan-19 10:01S 29°45' E 031°10'0 0.0
2020-Jan-19 08:30S 29°45' E 031°10'0 0.0
2020-Jan-19 06:31S 29°45' E 031°10'0 0.0
2020-Jan-19 04:27S 29°45' E 031°10'0 0.0
2020-Jan-19 03:28S 29°45' E 031°10'  

Dump ship's entire track history